sensor_id;sensor_type;location;lat;lon;timestamp;P1;durP1;ratioP1;P2;durP2;ratioP2
30533;SDS011;17318;52.390;9.754;2022-12-18T00:01:50;22.58;;;8.68;;
30533;SDS011;17318;52.390;9.754;2022-12-18T00:04:21;20.15;;;9.10;;
30533;SDS011;17318;52.390;9.754;2022-12-18T00:06:47;21.75;;;8.50;;
30533;SDS011;17318;52.390;9.754;2022-12-18T00:09:14;20.75;;;8.73;;
30533;SDS011;17318;52.390;9.754;2022-12-18T00:11:40;21.30;;;9.20;;
30533;SDS011;17318;52.390;9.754;2022-12-18T00:14:06;17.63;;;8.18;;
30533;SDS011;17318;52.390;9.754;2022-12-18T00:16:32;23.50;;;9.23;;
30533;SDS011;17318;52.390;9.754;2022-12-18T00:19:00;22.10;;;9.45;;
30533;SDS011;17318;52.390;9.754;2022-12-18T00:21:27;23.58;;;9.23;;
30533;SDS011;17318;52.390;9.754;2022-12-18T00:23:54;20.00;;;8.48;;
30533;SDS011;17318;52.390;9.754;2022-12-18T00:26:20;21.83;;;8.68;;
30533;SDS011;17318;52.390;9.754;2022-12-18T00:28:49;17.05;;;8.13;;
30533;SDS011;17318;52.390;9.754;2022-12-18T00:31:16;21.30;;;8.07;;
30533;SDS011;17318;52.390;9.754;2022-12-18T00:33:44;21.52;;;8.02;;
30533;SDS011;17318;52.390;9.754;2022-12-18T00:36:11;21.73;;;8.18;;
30533;SDS011;17318;52.390;9.754;2022-12-18T00:38:38;23.00;;;8.95;;
30533;SDS011;17318;52.390;9.754;2022-12-18T00:41:06;19.40;;;7.70;;
30533;SDS011;17318;52.390;9.754;2022-12-18T00:43:32;18.45;;;6.82;;
30533;SDS011;17318;52.390;9.754;2022-12-18T00:45:58;23.83;;;8.88;;
30533;SDS011;17318;52.390;9.754;2022-12-18T00:48:23;22.35;;;8.52;;
30533;SDS011;17318;52.390;9.754;2022-12-18T00:50:49;18.13;;;8.75;;
30533;SDS011;17318;52.390;9.754;2022-12-18T00:53:16;20.50;;;8.50;;
30533;SDS011;17318;52.390;9.754;2022-12-18T00:55:42;17.50;;;8.13;;
30533;SDS011;17318;52.390;9.754;2022-12-18T00:58:09;18.05;;;8.40;;
30533;SDS011;17318;52.390;9.754;2022-12-18T01:00:35;23.85;;;9.10;;
30533;SDS011;17318;52.390;9.754;2022-12-18T01:03:01;19.23;;;9.02;;
30533;SDS011;17318;52.390;9.754;2022-12-18T01:05:27;19.77;;;8.13;;
30533;SDS011;17318;52.390;9.754;2022-12-18T01:07:53;30.33;;;8.60;;
30533;SDS011;17318;52.390;9.754;2022-12-18T01:10:19;21.15;;;8.20;;
30533;SDS011;17318;52.390;9.754;2022-12-18T01:12:45;18.55;;;8.05;;
30533;SDS011;17318;52.390;9.754;2022-12-18T01:15:11;20.98;;;8.43;;
30533;SDS011;17318;52.390;9.754;2022-12-18T01:17:38;21.45;;;8.65;;
30533;SDS011;17318;52.390;9.754;2022-12-18T01:20:04;22.92;;;8.80;;
30533;SDS011;17318;52.390;9.754;2022-12-18T01:22:30;24.08;;;8.88;;
30533;SDS011;17318;52.390;9.754;2022-12-18T01:24:59;20.48;;;8.63;;
30533;SDS011;17318;52.390;9.754;2022-12-18T01:27:24;23.85;;;8.20;;
30533;SDS011;17318;52.390;9.754;2022-12-18T01:29:50;17.70;;;8.35;;
30533;SDS011;17318;52.390;9.754;2022-12-18T01:32:16;18.05;;;8.60;;
30533;SDS011;17318;52.390;9.754;2022-12-18T01:34:41;19.85;;;8.48;;
30533;SDS011;17318;52.390;9.754;2022-12-18T01:37:07;16.45;;;7.88;;
30533;SDS011;17318;52.390;9.754;2022-12-18T01:39:33;18.30;;;7.60;;
30533;SDS011;17318;52.390;9.754;2022-12-18T01:41:59;25.38;;;8.90;;
30533;SDS011;17318;52.390;9.754;2022-12-18T01:52:52;16.35;;;7.95;;
30533;SDS011;17318;52.390;9.754;2022-12-18T01:55:22;21.67;;;8.95;;
30533;SDS011;17318;52.390;9.754;2022-12-18T01:57:55;21.13;;;8.30;;
30533;SDS011;17318;52.390;9.754;2022-12-18T02:00:24;21.35;;;8.85;;
30533;SDS011;17318;52.390;9.754;2022-12-18T02:02:51;17.65;;;8.02;;
30533;SDS011;17318;52.390;9.754;2022-12-18T02:05:19;17.58;;;7.55;;
30533;SDS011;17318;52.390;9.754;2022-12-18T02:10:29;18.15;;;8.23;;
30533;SDS011;17318;52.390;9.754;2022-12-18T02:13:13;18.02;;;7.93;;
30533;SDS011;17318;52.390;9.754;2022-12-18T02:18:33;27.73;;;10.85;;
30533;SDS011;17318;52.390;9.754;2022-12-18T02:26:44;19.83;;;8.32;;
30533;SDS011;17318;52.390;9.754;2022-12-18T02:29:29;17.25;;;7.78;;
30533;SDS011;17318;52.390;9.754;2022-12-18T02:31:59;18.40;;;7.53;;
30533;SDS011;17318;52.390;9.754;2022-12-18T02:34:27;23.02;;;8.40;;
30533;SDS011;17318;52.390;9.754;2022-12-18T02:36:55;20.25;;;7.53;;
30533;SDS011;17318;52.390;9.754;2022-12-18T02:39:25;19.60;;;7.93;;
30533;SDS011;17318;52.390;9.754;2022-12-18T02:41:54;21.58;;;8.35;;
30533;SDS011;17318;52.390;9.754;2022-12-18T02:44:20;17.17;;;7.65;;
30533;SDS011;17318;52.390;9.754;2022-12-18T02:46:49;19.30;;;8.82;;
30533;SDS011;17318;52.390;9.754;2022-12-18T03:00:41;21.85;;;8.55;;
30533;SDS011;17318;52.390;9.754;2022-12-18T03:03:36;19.30;;;8.10;;
30533;SDS011;17318;52.390;9.754;2022-12-18T03:06:18;18.75;;;7.90;;
30533;SDS011;17318;52.390;9.754;2022-12-18T03:08:51;21.20;;;7.80;;
30533;SDS011;17318;52.390;9.754;2022-12-18T03:11:21;21.48;;;8.63;;
30533;SDS011;17318;52.390;9.754;2022-12-18T03:14:07;19.25;;;8.15;;
30533;SDS011;17318;52.390;9.754;2022-12-18T03:16:34;25.88;;;8.60;;
30533;SDS011;17318;52.390;9.754;2022-12-18T03:19:01;18.08;;;8.20;;
30533;SDS011;17318;52.390;9.754;2022-12-18T03:21:45;21.88;;;8.52;;
30533;SDS011;17318;52.390;9.754;2022-12-18T03:24:13;17.92;;;8.27;;
30533;SDS011;17318;52.390;9.754;2022-12-18T03:26:40;18.33;;;7.40;;
30533;SDS011;17318;52.390;9.754;2022-12-18T03:29:12;20.05;;;8.43;;
30533;SDS011;17318;52.390;9.754;2022-12-18T03:32:23;21.83;;;8.10;;
30533;SDS011;17318;52.390;9.754;2022-12-18T03:34:50;17.60;;;8.57;;
30533;SDS011;17318;52.390;9.754;2022-12-18T03:37:18;21.15;;;8.07;;
30533;SDS011;17318;52.390;9.754;2022-12-18T03:39:44;18.27;;;8.60;;
30533;SDS011;17318;52.390;9.754;2022-12-18T03:45:18;21.40;;;8.07;;
30533;SDS011;17318;52.390;9.754;2022-12-18T03:48:03;17.35;;;7.43;;
30533;SDS011;17318;52.390;9.754;2022-12-18T03:50:46;19.25;;;8.23;;
30533;SDS011;17318;52.390;9.754;2022-12-18T03:53:28;16.92;;;8.27;;
30533;SDS011;17318;52.390;9.754;2022-12-18T03:56:04;20.27;;;8.77;;
30533;SDS011;17318;52.390;9.754;2022-12-18T03:58:31;21.23;;;8.60;;
30533;SDS011;17318;52.390;9.754;2022-12-18T04:01:01;19.88;;;7.47;;
30533;SDS011;17318;52.390;9.754;2022-12-18T04:03:30;16.40;;;7.95;;
30533;SDS011;17318;52.390;9.754;2022-12-18T04:05:58;22.02;;;8.90;;
30533;SDS011;17318;52.390;9.754;2022-12-18T04:08:25;19.98;;;8.55;;
30533;SDS011;17318;52.390;9.754;2022-12-18T04:10:52;19.95;;;8.38;;
30533;SDS011;17318;52.390;9.754;2022-12-18T04:13:34;18.92;;;8.40;;
30533;SDS011;17318;52.390;9.754;2022-12-18T04:16:01;18.02;;;7.40;;
30533;SDS011;17318;52.390;9.754;2022-12-18T04:18:27;22.63;;;8.95;;
30533;SDS011;17318;52.390;9.754;2022-12-18T04:20:53;19.98;;;8.55;;
30533;SDS011;17318;52.390;9.754;2022-12-18T04:23:19;22.92;;;8.20;;
30533;SDS011;17318;52.390;9.754;2022-12-18T04:25:45;19.55;;;7.70;;
30533;SDS011;17318;52.390;9.754;2022-12-18T04:28:12;19.50;;;8.48;;
30533;SDS011;17318;52.390;9.754;2022-12-18T04:30:38;18.63;;;8.35;;
30533;SDS011;17318;52.390;9.754;2022-12-18T04:33:07;17.30;;;7.65;;
30533;SDS011;17318;52.390;9.754;2022-12-18T04:35:36;17.27;;;8.05;;
30533;SDS011;17318;52.390;9.754;2022-12-18T04:38:02;18.92;;;8.40;;
30533;SDS011;17318;52.390;9.754;2022-12-18T04:40:28;25.05;;;9.20;;
30533;SDS011;17318;52.390;9.754;2022-12-18T04:42:54;15.75;;;6.95;;
30533;SDS011;17318;52.390;9.754;2022-12-18T04:45:19;18.30;;;8.20;;
30533;SDS011;17318;52.390;9.754;2022-12-18T04:47:48;18.75;;;8.95;;
30533;SDS011;17318;52.390;9.754;2022-12-18T04:50:23;25.05;;;8.85;;
30533;SDS011;17318;52.390;9.754;2022-12-18T04:52:49;20.77;;;8.60;;
30533;SDS011;17318;52.390;9.754;2022-12-18T04:55:15;17.80;;;7.55;;
30533;SDS011;17318;52.390;9.754;2022-12-18T04:57:40;19.10;;;8.38;;
30533;SDS011;17318;52.390;9.754;2022-12-18T05:00:06;20.70;;;8.05;;
30533;SDS011;17318;52.390;9.754;2022-12-18T05:02:32;18.83;;;8.35;;
30533;SDS011;17318;52.390;9.754;2022-12-18T05:04:58;17.38;;;7.38;;
30533;SDS011;17318;52.390;9.754;2022-12-18T05:07:24;20.55;;;8.43;;
30533;SDS011;17318;52.390;9.754;2022-12-18T05:09:50;18.50;;;7.93;;
30533;SDS011;17318;52.390;9.754;2022-12-18T05:12:16;19.00;;;8.43;;
30533;SDS011;17318;52.390;9.754;2022-12-18T05:14:41;19.58;;;7.65;;
30533;SDS011;17318;52.390;9.754;2022-12-18T05:17:07;20.92;;;7.50;;
30533;SDS011;17318;52.390;9.754;2022-12-18T05:19:33;21.40;;;8.00;;
30533;SDS011;17318;52.390;9.754;2022-12-18T05:21:59;15.48;;;7.10;;
30533;SDS011;17318;52.390;9.754;2022-12-18T05:24:25;19.88;;;8.18;;
30533;SDS011;17318;52.390;9.754;2022-12-18T05:26:50;19.65;;;8.10;;
30533;SDS011;17318;52.390;9.754;2022-12-18T05:29:16;20.10;;;8.13;;
30533;SDS011;17318;52.390;9.754;2022-12-18T05:31:41;15.77;;;6.78;;
30533;SDS011;17318;52.390;9.754;2022-12-18T05:34:07;19.25;;;7.68;;
30533;SDS011;17318;52.390;9.754;2022-12-18T05:36:33;19.23;;;8.40;;
30533;SDS011;17318;52.390;9.754;2022-12-18T05:38:59;20.35;;;7.40;;
30533;SDS011;17318;52.390;9.754;2022-12-18T05:41:25;15.10;;;7.10;;
30533;SDS011;17318;52.390;9.754;2022-12-18T05:43:51;19.17;;;7.90;;
30533;SDS011;17318;52.390;9.754;2022-12-18T05:46:17;16.42;;;7.40;;
30533;SDS011;17318;52.390;9.754;2022-12-18T05:48:44;17.58;;;7.40;;
30533;SDS011;17318;52.390;9.754;2022-12-18T05:51:11;19.38;;;7.97;;
30533;SDS011;17318;52.390;9.754;2022-12-18T05:53:39;16.70;;;7.57;;
30533;SDS011;17318;52.390;9.754;2022-12-18T05:56:06;18.50;;;8.05;;
30533;SDS011;17318;52.390;9.754;2022-12-18T05:58:35;18.95;;;7.75;;
30533;SDS011;17318;52.390;9.754;2022-12-18T06:01:08;16.77;;;7.78;;
30533;SDS011;17318;52.390;9.754;2022-12-18T06:03:35;26.55;;;8.50;;
30533;SDS011;17318;52.390;9.754;2022-12-18T06:06:00;18.17;;;7.45;;
30533;SDS011;17318;52.390;9.754;2022-12-18T06:08:26;16.65;;;7.00;;
30533;SDS011;17318;52.390;9.754;2022-12-18T06:10:52;14.95;;;6.90;;
30533;SDS011;17318;52.390;9.754;2022-12-18T06:13:19;13.90;;;6.63;;
30533;SDS011;17318;52.390;9.754;2022-12-18T06:15:45;16.05;;;6.65;;
30533;SDS011;17318;52.390;9.754;2022-12-18T06:18:11;11.70;;;6.85;;
30533;SDS011;17318;52.390;9.754;2022-12-18T06:20:36;16.85;;;7.28;;
30533;SDS011;17318;52.390;9.754;2022-12-18T06:25:31;13.88;;;6.80;;
30533;SDS011;17318;52.390;9.754;2022-12-18T06:27:58;19.38;;;6.97;;
30533;SDS011;17318;52.390;9.754;2022-12-18T06:30:23;14.52;;;6.43;;
30533;SDS011;17318;52.390;9.754;2022-12-18T06:32:50;19.10;;;7.05;;
30533;SDS011;17318;52.390;9.754;2022-12-18T06:35:16;18.38;;;6.90;;
30533;SDS011;17318;52.390;9.754;2022-12-18T06:37:41;16.50;;;6.47;;
30533;SDS011;17318;52.390;9.754;2022-12-18T06:40:07;17.65;;;7.55;;
30533;SDS011;17318;52.390;9.754;2022-12-18T06:42:33;27.42;;;10.02;;
30533;SDS011;17318;52.390;9.754;2022-12-18T06:44:59;23.75;;;9.45;;
30533;SDS011;17318;52.390;9.754;2022-12-18T06:47:24;18.92;;;7.30;;
30533;SDS011;17318;52.390;9.754;2022-12-18T06:49:50;19.02;;;8.10;;
30533;SDS011;17318;52.390;9.754;2022-12-18T06:52:16;22.75;;;9.60;;
30533;SDS011;17318;52.390;9.754;2022-12-18T06:54:42;22.08;;;8.18;;
30533;SDS011;17318;52.390;9.754;2022-12-18T06:57:08;11.60;;;6.25;;
30533;SDS011;17318;52.390;9.754;2022-12-18T06:59:34;12.93;;;6.22;;
30533;SDS011;17318;52.390;9.754;2022-12-18T07:01:59;15.30;;;7.20;;
30533;SDS011;17318;52.390;9.754;2022-12-18T07:04:29;12.95;;;6.35;;
30533;SDS011;17318;52.390;9.754;2022-12-18T07:06:55;16.13;;;6.53;;
30533;SDS011;17318;52.390;9.754;2022-12-18T07:09:21;16.58;;;6.68;;
30533;SDS011;17318;52.390;9.754;2022-12-18T07:11:46;15.30;;;6.60;;
30533;SDS011;17318;52.390;9.754;2022-12-18T07:14:12;17.52;;;7.32;;
30533;SDS011;17318;52.390;9.754;2022-12-18T07:16:38;16.00;;;7.32;;
30533;SDS011;17318;52.390;9.754;2022-12-18T07:19:04;14.90;;;6.93;;
30533;SDS011;17318;52.390;9.754;2022-12-18T07:21:30;15.80;;;6.68;;
30533;SDS011;17318;52.390;9.754;2022-12-18T07:23:55;13.73;;;6.20;;
30533;SDS011;17318;52.390;9.754;2022-12-18T07:26:22;15.50;;;6.95;;
30533;SDS011;17318;52.390;9.754;2022-12-18T07:28:48;14.73;;;7.03;;
30533;SDS011;17318;52.390;9.754;2022-12-18T07:31:16;14.07;;;6.47;;
30533;SDS011;17318;52.390;9.754;2022-12-18T07:33:44;13.43;;;6.68;;
30533;SDS011;17318;52.390;9.754;2022-12-18T07:36:10;20.55;;;7.80;;
30533;SDS011;17318;52.390;9.754;2022-12-18T07:38:36;19.80;;;7.53;;
30533;SDS011;17318;52.390;9.754;2022-12-18T07:41:03;20.67;;;8.13;;
30533;SDS011;17318;52.390;9.754;2022-12-18T07:43:31;22.38;;;10.20;;
30533;SDS011;17318;52.390;9.754;2022-12-18T07:45:58;23.75;;;7.47;;
30533;SDS011;17318;52.390;9.754;2022-12-18T07:48:23;17.48;;;7.55;;
30533;SDS011;17318;52.390;9.754;2022-12-18T07:50:49;15.30;;;7.05;;
30533;SDS011;17318;52.390;9.754;2022-12-18T07:53:15;19.55;;;7.10;;
30533;SDS011;17318;52.390;9.754;2022-12-18T07:55:41;16.33;;;7.05;;
30533;SDS011;17318;52.390;9.754;2022-12-18T07:58:07;17.02;;;6.53;;
30533;SDS011;17318;52.390;9.754;2022-12-18T08:00:34;15.52;;;6.78;;
30533;SDS011;17318;52.390;9.754;2022-12-18T08:02:59;14.70;;;6.70;;
30533;SDS011;17318;52.390;9.754;2022-12-18T08:05:25;18.50;;;7.22;;
30533;SDS011;17318;52.390;9.754;2022-12-18T08:07:52;21.75;;;7.13;;
30533;SDS011;17318;52.390;9.754;2022-12-18T08:10:18;13.65;;;6.75;;
30533;SDS011;17318;52.390;9.754;2022-12-18T08:12:44;19.65;;;6.45;;
30533;SDS011;17318;52.390;9.754;2022-12-18T08:15:10;15.73;;;6.07;;
30533;SDS011;17318;52.390;9.754;2022-12-18T08:17:36;12.75;;;6.13;;
30533;SDS011;17318;52.390;9.754;2022-12-18T08:20:01;13.68;;;5.47;;
30533;SDS011;17318;52.390;9.754;2022-12-18T08:22:28;12.40;;;6.93;;
30533;SDS011;17318;52.390;9.754;2022-12-18T08:24:54;15.82;;;5.47;;
30533;SDS011;17318;52.390;9.754;2022-12-18T08:27:19;11.13;;;5.95;;
30533;SDS011;17318;52.390;9.754;2022-12-18T08:29:45;17.85;;;7.13;;
30533;SDS011;17318;52.390;9.754;2022-12-18T08:32:10;19.67;;;6.85;;
30533;SDS011;17318;52.390;9.754;2022-12-18T08:34:36;14.85;;;7.35;;
30533;SDS011;17318;52.390;9.754;2022-12-18T08:37:02;13.40;;;6.28;;
30533;SDS011;17318;52.390;9.754;2022-12-18T08:39:27;13.10;;;6.28;;
30533;SDS011;17318;52.390;9.754;2022-12-18T08:41:53;14.82;;;6.60;;
30533;SDS011;17318;52.390;9.754;2022-12-18T08:44:37;17.85;;;6.68;;
30533;SDS011;17318;52.390;9.754;2022-12-18T08:47:04;14.60;;;6.60;;
30533;SDS011;17318;52.390;9.754;2022-12-18T08:49:31;18.02;;;6.72;;
30533;SDS011;17318;52.390;9.754;2022-12-18T08:51:58;13.80;;;5.97;;
30533;SDS011;17318;52.390;9.754;2022-12-18T08:54:23;14.48;;;6.72;;
30533;SDS011;17318;52.390;9.754;2022-12-18T08:56:50;15.65;;;6.45;;
30533;SDS011;17318;52.390;9.754;2022-12-18T08:59:18;13.50;;;6.25;;
30533;SDS011;17318;52.390;9.754;2022-12-18T09:01:45;15.32;;;6.03;;
30533;SDS011;17318;52.390;9.754;2022-12-18T09:04:11;13.10;;;6.03;;
30533;SDS011;17318;52.390;9.754;2022-12-18T09:06:37;12.82;;;5.93;;
30533;SDS011;17318;52.390;9.754;2022-12-18T09:09:04;15.77;;;6.05;;
30533;SDS011;17318;52.390;9.754;2022-12-18T09:11:30;10.32;;;5.72;;
30533;SDS011;17318;52.390;9.754;2022-12-18T09:13:56;14.33;;;6.23;;
30533;SDS011;17318;52.390;9.754;2022-12-18T09:18:51;13.05;;;5.82;;
30533;SDS011;17318;52.390;9.754;2022-12-18T09:21:19;14.98;;;5.97;;
30533;SDS011;17318;52.390;9.754;2022-12-18T09:23:52;15.73;;;6.50;;
30533;SDS011;17318;52.390;9.754;2022-12-18T09:26:19;15.82;;;6.38;;
30533;SDS011;17318;52.390;9.754;2022-12-18T09:28:46;16.30;;;5.88;;
30533;SDS011;17318;52.390;9.754;2022-12-18T09:31:12;16.02;;;6.50;;
30533;SDS011;17318;52.390;9.754;2022-12-18T09:33:39;18.85;;;6.90;;
30533;SDS011;17318;52.390;9.754;2022-12-18T09:36:06;14.48;;;6.45;;
30533;SDS011;17318;52.390;9.754;2022-12-18T09:38:33;14.77;;;6.75;;
30533;SDS011;17318;52.390;9.754;2022-12-18T09:41:04;14.93;;;6.78;;
30533;SDS011;17318;52.390;9.754;2022-12-18T09:43:46;11.45;;;5.50;;
30533;SDS011;17318;52.390;9.754;2022-12-18T09:46:32;18.13;;;6.53;;
30533;SDS011;17318;52.390;9.754;2022-12-18T09:49:01;14.95;;;6.03;;
30533;SDS011;17318;52.390;9.754;2022-12-18T09:51:39;14.90;;;7.68;;
30533;SDS011;17318;52.390;9.754;2022-12-18T09:54:12;20.05;;;8.23;;
30533;SDS011;17318;52.390;9.754;2022-12-18T09:56:43;13.18;;;6.40;;
30533;SDS011;17318;52.390;9.754;2022-12-18T09:59:20;14.73;;;6.10;;
30533;SDS011;17318;52.390;9.754;2022-12-18T10:01:51;15.30;;;6.07;;
30533;SDS011;17318;52.390;9.754;2022-12-18T10:04:17;19.60;;;6.20;;
30533;SDS011;17318;52.390;9.754;2022-12-18T10:06:52;13.10;;;5.80;;
30533;SDS011;17318;52.390;9.754;2022-12-18T10:09:27;9.80;;;5.07;;
30533;SDS011;17318;52.390;9.754;2022-12-18T10:12:04;11.68;;;5.75;;
30533;SDS011;17318;52.390;9.754;2022-12-18T10:14:50;13.63;;;6.35;;
30533;SDS011;17318;52.390;9.754;2022-12-18T10:17:39;13.07;;;6.03;;
30533;SDS011;17318;52.390;9.754;2022-12-18T10:26:10;12.32;;;6.15;;
30533;SDS011;17318;52.390;9.754;2022-12-18T10:28:40;16.92;;;5.95;;
30533;SDS011;17318;52.390;9.754;2022-12-18T10:31:07;14.68;;;5.40;;
30533;SDS011;17318;52.390;9.754;2022-12-18T10:33:39;14.70;;;5.72;;
30533;SDS011;17318;52.390;9.754;2022-12-18T10:36:06;15.70;;;5.82;;
30533;SDS011;17318;52.390;9.754;2022-12-18T10:38:32;22.65;;;9.40;;
30533;SDS011;17318;52.390;9.754;2022-12-18T10:40:59;16.63;;;6.78;;
30533;SDS011;17318;52.390;9.754;2022-12-18T10:43:36;14.70;;;6.13;;
30533;SDS011;17318;52.390;9.754;2022-12-18T10:48:33;15.27;;;6.30;;
30533;SDS011;17318;52.390;9.754;2022-12-18T10:54:03;13.68;;;6.47;;
30533;SDS011;17318;52.390;9.754;2022-12-18T10:56:32;14.30;;;5.97;;
30533;SDS011;17318;52.390;9.754;2022-12-18T10:59:03;12.55;;;5.57;;
30533;SDS011;17318;52.390;9.754;2022-12-18T11:01:51;15.65;;;5.63;;
30533;SDS011;17318;52.390;9.754;2022-12-18T11:04:27;12.98;;;6.13;;
30533;SDS011;17318;52.390;9.754;2022-12-18T11:07:05;13.73;;;6.47;;
30533;SDS011;17318;52.390;9.754;2022-12-18T11:09:33;10.43;;;5.45;;
30533;SDS011;17318;52.390;9.754;2022-12-18T11:14:41;11.82;;;5.43;;
30533;SDS011;17318;52.390;9.754;2022-12-18T11:19:56;10.95;;;5.15;;
30533;SDS011;17318;52.390;9.754;2022-12-18T11:22:28;15.52;;;5.35;;
30533;SDS011;17318;52.390;9.754;2022-12-18T11:30:21;10.50;;;5.07;;
30533;SDS011;17318;52.390;9.754;2022-12-18T11:32:55;8.73;;;4.80;;
30533;SDS011;17318;52.390;9.754;2022-12-18T11:35:48;10.95;;;5.80;;
30533;SDS011;17318;52.390;9.754;2022-12-18T11:38:23;10.85;;;4.88;;
30533;SDS011;17318;52.390;9.754;2022-12-18T11:40:56;11.07;;;5.40;;
30533;SDS011;17318;52.390;9.754;2022-12-18T11:43:49;8.98;;;4.43;;
30533;SDS011;17318;52.390;9.754;2022-12-18T11:46:14;15.43;;;7.05;;
30533;SDS011;17318;52.390;9.754;2022-12-18T11:48:52;13.43;;;6.00;;
30533;SDS011;17318;52.390;9.754;2022-12-18T11:51:28;11.60;;;6.00;;
30533;SDS011;17318;52.390;9.754;2022-12-18T11:54:00;8.15;;;3.63;;
30533;SDS011;17318;52.390;9.754;2022-12-18T11:56:36;8.77;;;4.38;;
30533;SDS011;17318;52.390;9.754;2022-12-18T11:59:12;6.82;;;3.60;;
30533;SDS011;17318;52.390;9.754;2022-12-18T12:01:51;7.30;;;3.67;;
30533;SDS011;17318;52.390;9.754;2022-12-18T12:04:31;8.27;;;4.20;;
30533;SDS011;17318;52.390;9.754;2022-12-18T12:07:32;9.07;;;4.18;;
30533;SDS011;17318;52.390;9.754;2022-12-18T12:10:07;10.27;;;4.75;;
30533;SDS011;17318;52.390;9.754;2022-12-18T12:15:48;12.93;;;5.07;;
30533;SDS011;17318;52.390;9.754;2022-12-18T12:29:31;14.45;;;6.47;;
30533;SDS011;17318;52.390;9.754;2022-12-18T12:32:07;14.90;;;6.00;;
30533;SDS011;17318;52.390;9.754;2022-12-18T12:38:06;14.48;;;5.60;;
30533;SDS011;17318;52.390;9.754;2022-12-18T12:40:42;10.60;;;4.78;;
30533;SDS011;17318;52.390;9.754;2022-12-18T12:43:22;10.88;;;5.32;;
30533;SDS011;17318;52.390;9.754;2022-12-18T12:46:03;15.60;;;5.82;;
30533;SDS011;17318;52.390;9.754;2022-12-18T12:51:21;10.35;;;4.90;;
30533;SDS011;17318;52.390;9.754;2022-12-18T12:53:48;12.93;;;5.57;;
30533;SDS011;17318;52.390;9.754;2022-12-18T12:56:15;14.10;;;5.70;;
30533;SDS011;17318;52.390;9.754;2022-12-18T13:04:05;16.33;;;6.90;;
30533;SDS011;17318;52.390;9.754;2022-12-18T13:06:45;13.50;;;6.75;;
30533;SDS011;17318;52.390;9.754;2022-12-18T13:09:13;33.58;;;14.02;;
30533;SDS011;17318;52.390;9.754;2022-12-18T13:11:40;13.25;;;6.85;;
30533;SDS011;17318;52.390;9.754;2022-12-18T13:14:31;12.55;;;6.18;;
30533;SDS011;17318;52.390;9.754;2022-12-18T13:17:15;24.85;;;6.68;;
30533;SDS011;17318;52.390;9.754;2022-12-18T13:19:47;17.83;;;6.82;;
30533;SDS011;17318;52.390;9.754;2022-12-18T13:24:59;18.40;;;7.32;;
30533;SDS011;17318;52.390;9.754;2022-12-18T13:40:58;18.92;;;8.15;;
30533;SDS011;17318;52.390;9.754;2022-12-18T13:43:46;21.00;;;9.40;;
30533;SDS011;17318;52.390;9.754;2022-12-18T13:46:18;24.98;;;8.20;;
30533;SDS011;17318;52.390;9.754;2022-12-18T13:51:41;24.45;;;10.82;;
30533;SDS011;17318;52.390;9.754;2022-12-18T13:54:25;24.00;;;9.82;;
30533;SDS011;17318;52.390;9.754;2022-12-18T13:56:55;22.30;;;9.70;;
30533;SDS011;17318;52.390;9.754;2022-12-18T13:59:25;24.42;;;9.18;;
30533;SDS011;17318;52.390;9.754;2022-12-18T14:01:58;21.38;;;9.52;;
30533;SDS011;17318;52.390;9.754;2022-12-18T14:07:02;24.77;;;10.15;;
30533;SDS011;17318;52.390;9.754;2022-12-18T14:09:43;25.95;;;11.32;;
30533;SDS011;17318;52.390;9.754;2022-12-18T14:12:15;23.70;;;10.48;;
30533;SDS011;17318;52.390;9.754;2022-12-18T14:15:01;26.95;;;10.98;;
30533;SDS011;17318;52.390;9.754;2022-12-18T14:17:28;25.10;;;9.63;;
30533;SDS011;17318;52.390;9.754;2022-12-18T14:19:56;20.42;;;9.45;;
30533;SDS011;17318;52.390;9.754;2022-12-18T14:22:25;30.35;;;12.10;;
30533;SDS011;17318;52.390;9.754;2022-12-18T14:28:07;30.13;;;11.45;;
30533;SDS011;17318;52.390;9.754;2022-12-18T14:30:38;25.35;;;10.68;;
30533;SDS011;17318;52.390;9.754;2022-12-18T14:35:39;28.50;;;11.60;;
30533;SDS011;17318;52.390;9.754;2022-12-18T14:40:47;26.67;;;11.40;;
30533;SDS011;17318;52.390;9.754;2022-12-18T14:43:20;27.33;;;11.02;;
30533;SDS011;17318;52.390;9.754;2022-12-18T14:45:46;24.13;;;10.82;;
30533;SDS011;17318;52.390;9.754;2022-12-18T14:50:41;27.10;;;11.95;;
30533;SDS011;17318;52.390;9.754;2022-12-18T14:53:20;25.70;;;11.38;;
30533;SDS011;17318;52.390;9.754;2022-12-18T14:55:58;30.10;;;12.57;;
30533;SDS011;17318;52.390;9.754;2022-12-18T14:58:24;29.70;;;12.95;;
30533;SDS011;17318;52.390;9.754;2022-12-18T15:00:50;28.02;;;11.57;;
30533;SDS011;17318;52.390;9.754;2022-12-18T15:03:19;27.67;;;10.57;;
30533;SDS011;17318;52.390;9.754;2022-12-18T15:05:46;28.67;;;12.93;;
30533;SDS011;17318;52.390;9.754;2022-12-18T15:17:26;28.73;;;11.50;;
30533;SDS011;17318;52.390;9.754;2022-12-18T15:19:53;41.33;;;11.82;;
30533;SDS011;17318;52.390;9.754;2022-12-18T15:24:55;24.77;;;11.45;;
30533;SDS011;17318;52.390;9.754;2022-12-18T15:27:24;28.33;;;12.27;;
30533;SDS011;17318;52.390;9.754;2022-12-18T15:32:35;24.15;;;11.68;;
30533;SDS011;17318;52.390;9.754;2022-12-18T15:37:34;27.77;;;12.15;;
30533;SDS011;17318;52.390;9.754;2022-12-18T15:40:00;27.98;;;12.15;;
30533;SDS011;17318;52.390;9.754;2022-12-18T15:42:27;29.00;;;11.40;;
30533;SDS011;17318;52.390;9.754;2022-12-18T15:45:12;26.33;;;11.93;;
30533;SDS011;17318;52.390;9.754;2022-12-18T15:47:38;27.08;;;12.13;;
30533;SDS011;17318;52.390;9.754;2022-12-18T15:50:04;32.40;;;12.65;;
30533;SDS011;17318;52.390;9.754;2022-12-18T15:52:31;35.63;;;12.82;;
30533;SDS011;17318;52.390;9.754;2022-12-18T15:55:13;30.15;;;12.18;;
30533;SDS011;17318;52.390;9.754;2022-12-18T15:57:59;30.23;;;11.85;;
30533;SDS011;17318;52.390;9.754;2022-12-18T16:00:25;33.38;;;12.57;;
30533;SDS011;17318;52.390;9.754;2022-12-18T16:02:51;28.10;;;12.70;;
30533;SDS011;17318;52.390;9.754;2022-12-18T16:05:17;31.10;;;12.55;;
30533;SDS011;17318;52.390;9.754;2022-12-18T16:10:11;35.38;;;12.70;;
30533;SDS011;17318;52.390;9.754;2022-12-18T16:12:37;28.70;;;11.73;;
30533;SDS011;17318;52.390;9.754;2022-12-18T16:15:04;30.65;;;11.23;;
30533;SDS011;17318;52.390;9.754;2022-12-18T16:17:30;26.90;;;12.23;;
30533;SDS011;17318;52.390;9.754;2022-12-18T16:19:56;30.67;;;12.95;;
30533;SDS011;17318;52.390;9.754;2022-12-18T16:22:26;27.42;;;11.73;;
30533;SDS011;17318;52.390;9.754;2022-12-18T16:24:54;33.78;;;13.25;;
30533;SDS011;17318;52.390;9.754;2022-12-18T16:27:21;26.80;;;12.23;;
30533;SDS011;17318;52.390;9.754;2022-12-18T16:29:47;26.83;;;11.20;;
30533;SDS011;17318;52.390;9.754;2022-12-18T16:32:14;31.10;;;12.95;;
30533;SDS011;17318;52.390;9.754;2022-12-18T16:34:41;26.63;;;11.85;;
30533;SDS011;17318;52.390;9.754;2022-12-18T16:37:09;26.80;;;11.43;;
30533;SDS011;17318;52.390;9.754;2022-12-18T16:39:36;30.65;;;12.68;;
30533;SDS011;17318;52.390;9.754;2022-12-18T16:42:04;21.75;;;11.27;;
30533;SDS011;17318;52.390;9.754;2022-12-18T16:44:39;31.77;;;12.68;;
30533;SDS011;17318;52.390;9.754;2022-12-18T16:47:05;26.25;;;11.60;;
30533;SDS011;17318;52.390;9.754;2022-12-18T16:49:31;22.27;;;10.20;;
30533;SDS011;17318;52.390;9.754;2022-12-18T16:51:57;27.25;;;11.57;;
30533;SDS011;17318;52.390;9.754;2022-12-18T16:54:28;25.45;;;10.48;;
30533;SDS011;17318;52.390;9.754;2022-12-18T16:56:54;26.73;;;11.15;;
30533;SDS011;17318;52.390;9.754;2022-12-18T16:59:20;23.58;;;10.88;;
30533;SDS011;17318;52.390;9.754;2022-12-18T17:01:46;20.55;;;10.45;;
30533;SDS011;17318;52.390;9.754;2022-12-18T17:04:12;24.85;;;11.35;;
30533;SDS011;17318;52.390;9.754;2022-12-18T17:06:40;25.92;;;10.70;;